• Join FlightAware (Why Join?)
  • Login
  • US Flag 
04:46AM EDT


 

Airport Tracker/Info


-or-


 

Live Flight TrackerFlight Track Log ✈ JIA2342 ✈ 23-Jun-2013 ✈ KDCA - KALB

Flight Track Log - Related Links

Times and Time Zones

All times are in EDT time to prevent confusion due to time zone crossing. See the JIA2342 flight status page for this flight to view local times or setup timezone preferences in your user account.

Time Position Orientation Groundspeed Altitude Reporting Facility
EDT Latitude Longitude Course Direction KTS MPH feet Rate Location/Type
07:53PM 38.8333 -77.0333 67° East 167 192 1,100  Level Potomac TRACON
07:54PM 38.7833 -77.0333 180° South 224 258 3,200 2,280 Climbing Potomac TRACON
07:56PM 38.9599 -76.6038 67° East  Level FlightAware Approximate
07:56PM 38.6997 -76.9164 132° Southeast 230 265 8,500  Level Washington Center
07:57PM 38.9978 -76.4518 74° East  Level FlightAware Approximate
07:57PM 38.7733 -76.8592 31° Northeast 179 206 10,600  Level Washington Center
07:58PM 39.0232 -76.2971 67° East  Level FlightAware Approximate
07:58PM 38.8742 -76.7914 28° Northeast 246 283 12,300  Level Washington Center
07:59PM 38.9211 -76.6750 63° Northeast 320 368 13,900 1,620 Climbing Washington Center
08:00PM 38.9636 -76.5500 66° East 338 389 15,600 1,560 Climbing Washington Center
08:01PM 39.0083 -76.4250 65° Northeast 365 420 17,100 1,140 Climbing Washington Center
08:02PM 39.0281 -76.2889 79° East 378 435 18,000 900 Climbing Washington Center
08:03PM 39.0392 -76.1581 84° East 395 455 19,000 960 Climbing Washington Center
08:04PM 39.0481 -76.0111 86° East 400 460 20,000 960 Climbing Washington Center
08:05PM 39.0528 -75.8669 88° East 406 467 21,000 960 Climbing Washington Center
08:06PM 39.0592 -75.7200 87° East 406 467 22,000 960 Climbing Washington Center
08:07PM 39.0656 -75.5703 87° East 406 467 23,000 480 Climbing Washington Center
08:08PM 39.0694 -75.4153 88° East 411 473 23,000  Level Washington Center
08:09PM 39.0775 -75.2547 86° East 430 495 23,000  Level Washington Center
08:10PM 39.0853 -75.0942 86° East 440 506 23,100 720 Climbing Washington Center
08:11PM 39.0906 -74.9178 88° East 450 518 24,500 1,140 Climbing Washington Center
08:12PM 39.1189 -74.7703 76° East 423 487 25,500 960 Climbing Washington Center
08:13PM 39.1972 -74.6597 48° Northeast 398 458 26,500 960 Climbing Washington Center
08:14PM 39.2797 -74.5486 46° Northeast 410 472 27,500 960 Climbing Washington Center
08:15PM 39.3600 -74.4400 46° Northeast 410 472 28,500 720 Climbing Washington Center
08:16PM 39.4361 -74.3339 47° Northeast 410 472 29,000 240 Climbing Washington Center
08:17PM 39.5203 -74.2194 46° Northeast 415 478 29,000  Level Washington Center
08:18PM 39.6042 -74.1022 47° Northeast 425 489 29,000  Level Washington Center
08:19PM 39.6903 -73.9844 46° Northeast 435 501 29,000  Level Washington Center
08:21PM 39.8250 -73.7908 48° Northeast 446 513 29,000  Level Boston Center
08:22PM 39.9139 -73.6681 47° Northeast 456 525 29,000  Level Boston Center
08:23PM 40.0047 -73.5506 45° Northeast 456 525 29,000  Level Boston Center
08:24PM 40.0933 -73.4219 48° Northeast 456 525 29,000  Level Boston Center
08:25PM 40.1778 -73.2956 49° Northeast 461 531 29,000  Level Boston Center
08:26PM 40.2683 -73.1633 48° Northeast 468 539 29,000  Level Boston Center
08:27PM 40.3669 -73.0583 39° Northeast 462 532 29,000  Level Boston Center
08:28PM 40.4881 -72.9939 22° Northeast 455 524 29,000 -600 Level Boston Center
08:29PM 40.6089 -73.0222 350° North 427 491 27,900 -1,440 Descending Boston Center
08:30PM 40.7522 -73.0592 349° North 442 509 26,200 -1,620 Descending Boston Center
08:31PM 40.8772 -73.0797 353° North 456 525 24,700 -1,500 Descending Boston Center
08:32PM 41.0000 -73.1000 353° North 456 525 23,200 -1,500 Descending Boston Center
08:33PM 41.1186 -73.1317 349° North 444 511 21,700 -1,500 Descending Boston Center
08:34PM 41.2331 -73.1797 342° North 432 497 20,200 -900 Descending Boston Center
08:35PM 41.3514 -73.2225 345° North 427 491 20,000 -420 Descending Boston Center
08:36PM 41.4617 -73.2683 343° North 427 491 19,400 -1,020 Descending Boston Center
08:37PM 41.5758 -73.3169 342° North 427 491 18,000 -720 Descending Boston Center
08:38PM 41.6881 -73.3603 344° North 414 476 18,000 -300 Level Boston Center
08:39PM 41.7961 -73.4064 342° North 414 476 17,500 -1,200 Descending Boston Center
08:40PM 41.9042 -73.4497 343° North 409 471 15,600 -2,040 Descending Boston Center
08:41PM 42.0078 -73.4933 343° North 399 459 13,500 -2,040 Descending Boston Center
08:42PM 42.0764 -73.5225 342° North 383 441 12,200 -1,620 Descending Boston Center
08:43PM 42.1678 -73.5633 342° North 374 430 11,000 -900 Descending Boston Center
08:43PM 42.2258 -73.5867 343° North 376 433 10,900 -900 Descending Boston Center
08:45PM 42.3314 -73.6419 339° North 268 308 9,200 -1,680 Descending Boston Center
08:46PM 42.4042 -73.6744 342° North 265 305 6,900 -2,280 Descending Boston Center
08:47PM 42.4767 -73.7069 342° North 270 311 4,700 -2,160 Descending Boston Center
08:48PM 42.5575 -73.7481 339° North 272 313 2,300 -1,440 Descending Boston Center
08:49PM 42.6114 -73.7772 338° Northwest 271 312 2,000 -360 Descending Boston Center
08:50PM 42.6694 -73.8039 341° North 181 208 1,700 -600 Descending Boston Center
08:51PM 42.7111 -73.8078 356° North 136 157 900 -840 Descending Boston Center
08:53PM 42.7333 -73.8000 340° North  Level FlightAware Approximate